Time;durP1;ratioP1;P1;durP2;ratioP2;P2;SDS_P1;SDS_P2;PMS_P1;PMS_P2;Temp;Humidity;BMP_temperature;BMP_pressure;BME280_temperature;BME280_humidity;BME280_pressure;Samples;Min_cycle;Max_cycle;Signal;HPM_P1;HPM_P2
2022/06/20 00:02:26;;;;;;;7.75;1.80;;;;;;;18.11;63.57;98563.34;5054150;28;20165;-64
2022/06/20 00:04:54;;;;;;;6.53;1.92;;;;;;;17.74;63.86;98522.22;5034007;28;20018;-63
2022/06/20 00:07:21;;;;;;;4.32;1.98;;;;;;;18.07;63.63;98562.72;5032884;28;20432;-62
2022/06/20 00:09:47;;;;;;;4.90;1.88;;;;;;;18.07;64.38;98567.97;5048214;28;20021;-62
2022/06/20 00:12:22;;;;;;;3.38;2.60;;;;;;;17.63;65.93;98548.31;5053853;28;20070;-63
2022/06/20 00:14:51;;;;;;;4.38;1.90;;;;;;;17.80;65.28;98564.63;5053707;28;20366;-61
2022/06/20 00:17:16;;;;;;;2.72;2.10;;;;;;;17.80;64.82;98562.84;5053669;28;20029;-62
2022/06/20 00:19:42;;;;;;;4.90;2.00;;;;;;;17.71;66.04;98566.91;5070182;28;20020;-62
2022/06/20 00:22:09;;;;;;;4.18;1.92;;;;;;;17.47;65.54;98521.50;5052418;28;20055;-63
2022/06/20 00:24:35;;;;;;;4.63;2.20;;;;;;;17.80;65.96;98572.47;5053406;28;20021;-63
2022/06/20 00:27:06;;;;;;;5.05;2.17;;;;;;;17.75;66.23;98572.81;5053517;28;20388;-63
2022/06/20 00:29:33;;;;;;;3.17;1.80;;;;;;;17.70;66.66;98570.50;5053619;28;20033;-63
2022/06/20 00:32:00;;;;;;;5.03;1.98;;;;;;;17.70;66.89;98578.38;5053232;28;20025;-63
2022/06/20 00:34:25;;;;;;;6.22;2.28;;;;;;;17.57;67.16;98578.38;5053717;28;20033;-64
2022/06/20 00:36:51;;;;;;;3.90;1.92;;;;;;;17.48;67.31;98570.31;5053027;28;20375;-65
2022/06/20 00:39:19;;;;;;;3.33;1.80;;;;;;;17.39;66.46;98519.41;5059908;28;20140;-63
2022/06/20 00:41:45;;;;;;;3.88;1.83;;;;;;;17.59;67.19;98557.31;5072899;28;20090;-63
2022/06/20 00:44:14;;;;;;;3.15;2.08;;;;;;;17.13;67.91;98488.00;5072957;28;20469;-62
2022/06/20 00:47:21;;;;;;;3.45;2.00;;;;;;;17.53;67.86;98531.53;5056766;28;20071;-62
2022/06/20 00:50:15;;;;;;;3.75;1.90;;;;;;;17.61;67.31;98539.72;5053565;28;20032;-63
2022/06/20 00:53:49;;;;;;;3.13;1.70;;;;;;;17.42;67.51;98499.09;5053127;28;20047;-63
2022/06/20 00:57:14;;;;;;;2.92;1.83;;;;;;;17.61;67.93;98558.03;5028037;28;20060;-62
2022/06/20 01:00:20;;;;;;;5.55;2.03;;;;;;;17.57;67.92;98557.44;5039593;28;20076;-62
2022/06/20 01:03:23;;;;;;;3.38;1.88;;;;;;;17.22;68.06;98525.81;5032859;28;20175;-63
2022/06/20 01:06:23;;;;;;;5.60;2.50;;;;;;;17.14;67.51;98531.53;5063664;28;20032;-63
2022/06/20 01:09:10;;;;;;;6.35;1.85;;;;;;;17.04;67.36;98528.69;5058804;28;20049;-62
2022/06/20 01:11:57;;;;;;;2.83;2.28;;;;;;;17.15;67.21;98548.09;5033060;28;20130;-63
2022/06/20 01:14:42;;;;;;;3.60;1.90;;;;;;;17.51;67.72;98597.09;5039312;28;20500;-62
2022/06/20 01:17:38;;;;;;;5.18;2.10;;;;;;;17.16;68.41;98550.59;5071719;28;20082;-62
2022/06/20 01:20:29;;;;;;;2.55;1.88;;;;;;;17.33;68.71;98598.34;5064600;28;20040;-63
2022/06/20 01:23:43;;;;;;;5.10;2.10;;;;;;;16.90;69.59;98552.31;5052692;28;20059;-63
2022/06/20 01:26:55;;;;;;;4.30;2.20;;;;;;;17.15;68.51;98582.94;5052807;28;20047;-64
2022/06/20 01:29:39;;;;;;;6.25;1.95;;;;;;;17.18;68.31;98587.94;5052200;28;20055;-63
2022/06/20 01:32:23;;;;;;;3.88;2.10;;;;;;;17.21;68.66;98568.59;5051230;28;20406;-63
2022/06/20 01:35:11;;;;;;;2.35;1.90;;;;;;;17.22;68.39;98578.97;5032873;28;20103;-64
2022/06/20 01:37:55;;;;;;;3.88;2.05;;;;;;;17.16;68.61;98571.53;5032368;28;20090;-64
2022/06/20 01:42:18;;;;;;;2.90;2.05;;;;;;;17.09;69.06;98570.25;5032350;28;20642;-65
2022/06/20 01:43:46;;;;;;;4.45;1.90;;;;;;;16.99;69.52;98590.13;5032610;28;20068;-65
2022/06/20 01:46:33;;;;;;;3.45;1.90;;;;;;;17.09;69.42;98604.28;5055544;28;20094;-65
2022/06/20 01:49:21;;;;;;;4.25;1.90;;;;;;;17.04;69.59;98588.84;5052558;28;20043;-64
2022/06/20 01:52:13;;;;;;;3.95;2.40;;;;;;;16.97;71.26;98579.75;5036913;28;20052;-65
2022/06/20 01:55:07;;;;;;;3.88;2.00;;;;;;;16.98;72.25;98575.38;5045867;28;20040;-61
2022/06/20 01:57:59;;;;;;;5.60;2.10;;;;;;;16.91;72.46;98580.16;5038860;28;20043;-61
2022/06/20 02:00:43;;;;;;;2.83;2.00;;;;;;;16.90;72.33;98573.25;5034062;28;20040;-61
2022/06/20 02:03:31;;;;;;;3.45;1.90;;;;;;;16.90;71.93;98565.38;5051846;28;20047;-62
2022/06/20 02:06:17;;;;;;;4.22;2.17;;;;;;;16.70;71.78;98528.31;5050644;28;20043;-61
2022/06/20 02:09:04;;;;;;;3.70;2.30;;;;;;;16.86;72.28;98540.34;5052020;28;20113;-61
2022/06/20 02:11:48;;;;;;;5.25;2.17;;;;;;;16.89;72.86;98554.09;5052084;28;20052;-62
2022/06/20 02:14:48;;;;;;;5.57;2.60;;;;;;;16.87;74.02;98561.19;5052263;28;20075;-62
2022/06/20 02:17:36;;;;;;;4.35;2.15;;;;;;;16.86;74.16;98564.75;5052103;28;20044;-62
2022/06/20 02:20:27;;;;;;;2.88;2.15;;;;;;;16.81;75.43;98569.41;5052270;28;20040;-62
2022/06/20 02:23:17;;;;;;;5.53;2.67;;;;;;;16.67;74.92;98554.63;5051856;28;20040;-62
2022/06/20 02:26:04;;;;;;;3.97;2.40;;;;;;;16.70;75.31;98556.19;5051307;28;20097;-62
2022/06/20 02:29:03;;;;;;;6.25;2.40;;;;;;;16.73;75.74;98593.47;5051942;28;20035;-61
2022/06/20 02:31:54;;;;;;;5.53;2.58;;;;;;;16.72;76.03;98602.22;5055409;28;20052;-61
2022/06/20 02:34:38;;;;;;;8.02;2.60;;;;;;;16.72;75.47;98573.47;5054675;28;20437;-61
2022/06/20 02:37:25;;;;;;;4.97;2.70;;;;;;;16.73;76.42;98590.84;5054215;28;20134;-61
2022/06/20 02:40:14;;;;;;;5.28;2.60;;;;;;;16.63;77.14;98565.38;5055909;28;20520;-62
2022/06/20 02:43:21;;;;;;;7.30;3.15;;;;;;;16.35;77.05;98517.50;5068883;28;20564;-62
2022/06/20 02:46:10;;;;;;;4.97;2.50;;;;;;;16.53;77.45;98560.75;5047251;28;20033;-62
2022/06/20 02:48:55;;;;;;;8.30;2.95;;;;;;;16.44;77.29;98550.06;5060730;28;20040;-63
2022/06/20 02:51:45;;;;;;;4.18;2.97;;;;;;;16.51;77.05;98544.31;5075308;28;20102;-63
2022/06/20 02:54:34;;;;;;;7.32;3.03;;;;;;;16.16;77.50;98484.72;5056662;28;20040;-62
2022/06/20 02:57:38;;;;;;;6.45;3.00;;;;;;;16.38;78.24;98491.19;5039475;28;20409;-61
2022/06/20 03:00:32;;;;;;;4.72;2.60;;;;;;;16.17;77.80;98456.81;5047161;28;20045;-62
2022/06/20 03:03:40;;;;;;;5.05;2.55;;;;;;;16.18;78.87;98506.34;5042697;28;20090;-62
2022/06/20 03:06:36;;;;;;;4.82;2.42;;;;;;;15.99;79.46;98532.81;5055325;28;20039;-61
2022/06/20 03:09:27;;;;;;;3.58;2.50;;;;;;;16.17;79.18;98582.22;5055291;28;20482;-61
2022/06/20 03:12:13;;;;;;;4.65;2.40;;;;;;;16.29;78.55;98546.63;5048377;28;20040;-61
2022/06/20 03:15:00;;;;;;;4.60;2.80;;;;;;;16.28;77.94;98527.50;5035146;28;20188;-61
2022/06/20 03:17:46;;;;;;;5.35;2.60;;;;;;;15.97;79.07;98443.25;5035214;28;20091;-61
2022/06/20 03:20:30;;;;;;;3.72;2.60;;;;;;;16.30;78.04;98465.53;5044107;28;20031;-61
2022/06/20 03:23:38;;;;;;;6.07;3.00;;;;;;;16.24;79.11;98489.44;5054373;28;20095;-63
2022/06/20 03:26:25;;;;;;;5.30;2.65;;;;;;;16.31;78.67;98526.50;5054735;28;20509;-61
2022/06/20 03:29:14;;;;;;;4.90;2.83;;;;;;;15.95;78.66;98502.59;5054812;28;20035;-61
2022/06/20 03:31:58;;;;;;;5.35;2.63;;;;;;;16.35;78.60;98567.16;5054781;28;20031;-61
2022/06/20 03:34:42;;;;;;;6.95;2.75;;;;;;;16.35;78.57;98543.66;5073532;28;20397;-61
2022/06/20 03:37:26;;;;;;;4.80;2.50;;;;;;;16.24;79.41;98520.81;5040864;28;20402;-61
2022/06/20 03:40:11;;;;;;;10.02;2.80;;;;;;;16.30;78.53;98519.56;5034412;28;20045;-61
2022/06/20 03:42:57;;;;;;;4.25;2.50;;;;;;;16.19;78.77;98515.88;5034451;28;20107;-61
2022/06/20 03:45:48;;;;;;;2.53;2.25;;;;;;;15.86;78.75;98477.91;5034168;28;20032;-61
2022/06/20 03:48:37;;;;;;;5.35;3.00;;;;;;;15.89;78.86;98503.00;5034812;28;20044;-61
2022/06/20 03:51:27;;;;;;;5.40;2.85;;;;;;;15.94;78.79;98480.03;5049199;28;20093;-61
2022/06/20 03:54:32;;;;;;;4.28;2.40;;;;;;;16.21;79.82;98568.03;5057627;28;20076;-61
2022/06/20 03:57:22;;;;;;;5.22;2.72;;;;;;;16.24;78.47;98587.91;5047375;28;20592;-61
2022/06/20 04:00:14;;;;;;;6.45;2.72;;;;;;;15.88;78.55;98537.84;5069109;28;20039;-63
2022/06/20 04:03:06;;;;;;;5.47;2.55;;;;;;;15.92;77.87;98556.78;5054290;28;20114;-63
2022/06/20 04:06:01;;;;;;;4.13;2.33;;;;;;;15.90;78.27;98535.97;5054372;28;20040;-63
2022/06/20 04:12:10;;;;;;;6.95;2.55;;;;;;;15.89;78.47;98458.59;5034023;28;20398;-63
2022/06/20 04:15:01;;;;;;;7.22;2.65;;;;;;;16.17;77.82;98485.56;5032565;28;20036;-63
2022/06/20 04:21:02;;;;;;;4.57;2.40;;;;;;;15.93;79.32;98494.00;5045881;28;20102;-63
2022/06/20 04:24:12;;;;;;;4.78;2.72;;;;;;;16.34;77.99;98548.00;5053858;28;20056;-63
2022/06/20 04:27:04;;;;;;;4.25;2.40;;;;;;;16.37;78.46;98554.81;5057022;28;20409;-62
2022/06/20 04:30:03;;;;;;;7.30;2.58;;;;;;;16.25;78.01;98491.13;5067874;28;20040;-63
2022/06/20 04:32:53;;;;;;;5.93;2.90;;;;;;;16.65;77.15;98535.59;5035959;28;20061;-63
2022/06/20 04:35:43;;;;;;;5.93;3.15;;;;;;;16.29;77.43;98490.00;5053692;28;20040;-62
2022/06/20 04:38:33;;;;;;;5.93;2.67;;;;;;;16.33;75.77;98501.09;5053588;28;20453;-62
2022/06/20 04:41:28;;;;;;;5.80;2.80;;;;;;;15.72;77.36;98428.31;5053167;28;20055;-63
2022/06/20 04:44:21;;;;;;;3.55;2.33;;;;;;;16.59;76.36;98556.91;5033446;28;20086;-63
2022/06/20 04:47:24;;;;;;;4.85;2.70;;;;;;;16.49;76.07;98571.50;5051014;28;20116;-62
2022/06/20 04:50:15;;;;;;;4.43;2.50;;;;;;;16.43;76.27;98556.22;5053434;28;20040;-64
2022/06/20 04:53:08;;;;;;;3.00;2.40;;;;;;;16.28;75.61;98483.09;5052909;28;20512;-63
2022/06/20 04:55:56;;;;;;;5.35;2.75;;;;;;;16.29;76.23;98486.53;5071500;28;20032;-62
2022/06/20 04:58:46;;;;;;;4.53;3.08;;;;;;;16.33;76.73;98504.56;5051130;28;20040;-62
2022/06/20 05:01:34;;;;;;;3.92;2.53;;;;;;;16.49;75.68;98516.59;5053148;28;20682;-61
2022/06/20 05:04:31;;;;;;;8.93;3.03;;;;;;;16.51;75.20;98544.31;5066865;28;20044;-62
2022/06/20 05:07:33;;;;;;;6.28;2.65;;;;;;;16.60;74.79;98537.66;5072826;28;20130;-62
2022/06/20 05:10:36;;;;;;;11.43;2.97;;;;;;;16.35;74.16;98487.00;5073068;28;20040;-61
2022/06/20 05:13:29;;;;;;;9.40;2.97;;;;;;;16.67;76.20;98538.09;5042191;28;20116;-62
2022/06/20 05:16:22;;;;;;;4.88;2.40;;;;;;;16.67;74.79;98557.22;5060555;28;20039;-62
2022/06/20 05:19:12;;;;;;;4.03;2.50;;;;;;;16.32;76.32;98505.47;5072848;28;20120;-63
2022/06/20 05:22:01;;;;;;;4.13;2.42;;;;;;;16.46;75.22;98530.72;5032649;28;20048;-62
2022/06/20 05:24:47;;;;;;;7.13;2.92;;;;;;;16.61;73.68;98559.44;5032550;28;20037;-62
2022/06/20 05:27:45;;;;;;;4.07;2.50;;;;;;;16.54;73.81;98577.28;5032464;28;20037;-62
2022/06/20 05:30:34;;;;;;;6.88;2.80;;;;;;;16.59;73.20;98545.59;5048536;28;20043;-62
2022/06/20 05:33:28;;;;;;;5.63;2.65;;;;;;;16.97;74.54;98565.84;5072612;28;20043;-63
2022/06/20 05:36:21;;;;;;;7.10;2.70;;;;;;;16.96;73.77;98570.25;5072108;28;20036;-62
2022/06/20 05:38:57;;;;;;;7.90;2.72;;;;;;;16.67;72.71;98536.31;5068236;28;20060;-62
2022/06/20 05:41:23;;;;;;;5.18;2.42;;;;;;;16.90;73.75;98604.63;5032444;28;20455;-62
2022/06/20 05:43:49;;;;;;;6.10;2.65;;;;;;;16.81;73.49;98598.19;5069799;28;20103;-62
2022/06/20 05:46:21;;;;;;;9.20;2.95;;;;;;;16.49;72.56;98563.66;5060941;28;20112;-61
2022/06/20 05:48:51;;;;;;;5.80;2.53;;;;;;;16.51;73.91;98580.91;5061214;28;20455;-61
2022/06/20 05:51:20;;;;;;;3.95;2.60;;;;;;;16.60;74.20;98586.50;5059857;28;20029;-61
2022/06/20 05:53:54;;;;;;;4.90;2.60;;;;;;;16.81;73.65;98639.19;5037203;28;20028;-62
2022/06/20 05:56:42;;;;;;;8.35;3.58;;;;;;;16.46;73.21;98588.22;5072349;28;20113;-62
2022/06/20 05:59:26;;;;;;;5.75;2.45;;;;;;;16.59;72.60;98593.50;5031596;28;20479;-63
2022/06/20 06:01:57;;;;;;;6.93;2.70;;;;;;;16.86;74.38;98647.56;5032050;28;20033;-63
2022/06/20 06:04:33;;;;;;;5.45;2.42;;;;;;;16.94;74.40;98645.34;5061091;28;20029;-62
2022/06/20 06:07:34;;;;;;;8.70;2.70;;;;;;;16.82;72.33;98643.50;5047697;28;20064;-62
2022/06/20 06:10:25;;;;;;;6.25;3.00;;;;;;;16.76;72.28;98599.41;5053993;28;20123;-62
2022/06/20 06:13:13;;;;;;;4.83;2.20;;;;;;;16.79;72.26;98593.97;5061318;28;20094;-61
2022/06/20 06:18:51;;;;;;;7.10;2.50;;;;;;;17.27;71.70;98635.38;5031883;28;20038;-63
2022/06/20 06:21:17;;;;;;;7.95;2.50;;;;;;;17.25;71.29;98628.47;5046636;28;20112;-64
2022/06/20 06:23:45;;;;;;;8.85;3.17;;;;;;;17.43;71.92;98636.88;5052931;28;20033;-63
2022/06/20 06:26:15;;;;;;;5.13;2.47;;;;;;;16.94;70.17;98582.56;5071580;28;20030;-63
2022/06/20 06:28:42;;;;;;;5.57;2.67;;;;;;;17.53;70.90;98625.78;5071723;28;20141;-63
2022/06/20 06:31:17;;;;;;;7.80;2.75;;;;;;;17.67;71.26;98625.72;5045699;28;20497;-63
2022/06/20 06:33:52;;;;;;;8.07;2.92;;;;;;;17.74;70.62;98629.59;5030413;28;20060;-64
2022/06/20 06:36:52;;;;;;;10.57;3.13;;;;;;;17.89;69.13;98611.97;5031616;28;20033;-63
2022/06/20 06:39:33;;;;;;;6.57;2.45;;;;;;;17.52;68.22;98566.53;5026673;28;20542;-61
2022/06/20 06:42:02;;;;;;;6.60;2.90;;;;;;;17.79;69.00;98578.69;5032842;28;20041;-62
2022/06/20 06:44:40;;;;;;;6.57;3.10;;;;;;;18.06;67.86;98602.97;5051365;28;20025;-63
2022/06/20 06:47:15;;;;;;;10.48;3.55;;;;;;;18.21;67.04;98610.69;5047982;28;20040;-65
2022/06/20 06:49:45;;;;;;;7.70;3.33;;;;;;;18.08;66.23;98611.56;5066837;28;20064;-63
2022/06/20 06:52:30;;;;;;;5.60;2.55;;;;;;;17.77;66.33;98612.81;5044615;28;20108;-63
2022/06/20 06:55:04;;;;;;;6.00;2.60;;;;;;;17.68;66.74;98563.69;5032536;28;20033;-63
2022/06/20 06:57:55;;;;;;;5.75;3.05;;;;;;;17.90;67.98;98560.41;5044436;28;20028;-63
2022/06/20 07:00:45;;;;;;;8.30;2.83;;;;;;;17.99;66.22;98574.69;5065675;28;20032;-63
2022/06/20 07:03:26;;;;;;;6.55;2.63;;;;;;;18.28;65.80;98611.94;5045250;28;20037;-64
2022/06/20 07:05:58;;;;;;;5.40;2.78;;;;;;;18.25;65.27;98555.31;5036750;28;20113;-63
2022/06/20 07:08:27;;;;;;;;;;;;;;;18.56;65.15;98615.22;5048820;28;20035;-63
2022/06/20 07:10:59;;;;;;;7.97;2.65;;;;;;;18.77;64.13;98611.06;5032472;28;19924;-61
2022/06/20 07:13:50;;;;;;;4.63;2.72;;;;;;;18.88;64.78;98618.16;5035581;28;20028;-62
2022/06/20 07:16:25;;;;;;;9.60;2.80;;;;;;;19.04;63.83;98622.28;5040554;28;20022;-63
2022/06/20 07:18:54;;;;;;;11.07;2.50;;;;;;;19.18;64.24;98611.59;5055695;28;20020;-64
2022/06/20 07:21:22;;;;;;;9.40;3.28;;;;;;;19.14;63.56;98632.00;5059484;28;20021;-64
2022/06/20 07:24:05;;;;;;;4.85;2.28;;;;;;;18.76;62.42;98575.28;5056616;28;20166;-64
2022/06/20 07:26:39;;;;;;;6.43;2.33;;;;;;;19.12;62.54;98618.13;5075343;28;20028;-65
2022/06/20 07:29:11;;;;;;;4.65;2.20;;;;;;;18.90;60.98;98625.94;5035551;28;20025;-63
2022/06/20 07:31:40;;;;;;;8.02;2.63;;;;;;;18.94;60.80;98593.25;5035422;28;20535;-64
2022/06/20 07:34:11;;;;;;;7.95;2.63;;;;;;;19.27;61.53;98628.47;5035177;28;20116;-65
2022/06/20 07:36:44;;;;;;;5.70;2.53;;;;;;;19.27;61.73;98599.59;5034908;28;20036;-65
2022/06/20 07:39:28;;;;;;;6.50;2.28;;;;;;;19.57;61.75;98641.06;5044161;28;20497;-65
2022/06/20 07:42:32;;;;;;;5.03;2.30;;;;;;;19.53;60.04;98637.00;5057237;28;20041;-65
2022/06/20 07:45:05;;;;;;;13.65;3.03;;;;;;;19.37;60.73;98618.94;5059330;28;20036;-64
2022/06/20 07:47:37;;;;;;;5.32;2.60;;;;;;;19.23;60.16;98604.22;5033695;28;20025;-64
2022/06/20 07:50:08;;;;;;;8.98;2.92;;;;;;;19.59;60.22;98631.28;5035029;28;20167;-64
2022/06/20 07:52:45;;;;;;;8.60;2.55;;;;;;;19.08;60.59;98579.97;5034938;28;20056;-65
2022/06/20 07:55:20;;;;;;;7.05;2.80;;;;;;;19.21;60.23;98587.75;5037494;28;20029;-63
2022/06/20 07:58:04;;;;;;;7.80;3.15;;;;;;;19.49;59.21;98631.13;5053177;28;20051;-62
2022/06/20 08:00:36;;;;;;;5.72;2.63;;;;;;;19.16;58.60;98594.31;5067813;28;20090;-63
2022/06/20 08:03:09;;;;;;;6.25;2.60;;;;;;;19.46;59.48;98641.03;5051755;28;20057;-65
2022/06/20 08:05:44;;;;;;;9.57;2.90;;;;;;;19.32;58.08;98600.06;5041114;28;20382;-63
2022/06/20 08:08:14;;;;;;;6.00;2.72;;;;;;;19.55;58.73;98653.47;5034702;28;20154;-63
2022/06/20 08:10:47;;;;;;;4.03;2.20;;;;;;;19.77;58.20;98655.31;5067427;28;20071;-62
2022/06/20 08:13:25;;;;;;;4.40;2.10;;;;;;;19.76;57.95;98672.03;5074539;28;20036;-61
2022/06/20 08:16:24;;;;;;;4.68;2.30;;;;;;;19.72;56.51;98662.72;5074313;28;20031;-61
2022/06/20 08:18:50;;;;;;;4.03;2.13;;;;;;;19.57;55.32;98650.75;5064371;28;20021;-63
2022/06/20 08:21:23;;;;;;;6.57;2.25;;;;;;;19.63;55.17;98639.78;5054138;28;20036;-63
2022/06/20 08:23:55;;;;;;;4.07;1.75;;;;;;;19.74;57.28;98613.53;5052358;28;20403;-62
2022/06/20 08:26:27;;;;;;;5.10;2.17;;;;;;;19.96;56.83;98651.31;5053921;28;20029;-63
2022/06/20 08:29:05;;;;;;;7.75;2.60;;;;;;;19.64;56.36;98597.63;5071949;28;20063;-62
2022/06/20 08:31:39;;;;;;;3.45;1.70;;;;;;;20.07;55.22;98643.44;5044145;28;20100;-61
2022/06/20 08:34:16;;;;;;;5.75;2.72;;;;;;;20.31;55.47;98647.75;5045383;28;20077;-62
2022/06/20 08:36:59;;;;;;;4.53;2.00;;;;;;;20.49;53.14;98646.28;5059540;28;20075;-62
2022/06/20 08:39:44;;;;;;;6.60;1.80;;;;;;;20.59;53.21;98632.38;5045893;28;20077;-63
2022/06/20 08:42:45;;;;;;;6.25;1.80;;;;;;;20.43;50.62;98641.50;5041518;28;20076;-62
2022/06/20 08:45:32;;;;;;;8.40;1.95;;;;;;;20.47;51.45;98663.16;5062151;28;20023;-63
2022/06/20 08:48:06;;;;;;;5.22;1.98;;;;;;;20.26;50.17;98655.16;5033860;28;20526;-63
2022/06/20 08:50:56;;;;;;;4.30;1.83;;;;;;;20.51;52.66;98654.88;5033978;28;20032;-63
2022/06/20 08:54:10;;;;;;;7.15;1.92;;;;;;;20.29;49.90;98604.94;5033819;28;20096;-63
2022/06/20 08:56:39;;;;;;;2.72;1.55;;;;;;;20.66;49.72;98654.63;5033775;28;20034;-63
2022/06/20 08:59:10;;;;;;;4.78;1.63;;;;;;;20.61;49.16;98654.16;5072440;28;20355;-63
2022/06/20 09:01:42;;;;;;;5.30;1.80;;;;;;;20.56;48.09;98649.25;5058013;28;20515;-63
2022/06/20 09:04:26;;;;;;;;;;;;;;;20.58;45.37;98643.88;5041089;28;20120;-63
2022/06/20 09:07:22;;;;;;;4.07;1.52;;;;;;;20.58;50.63;98644.72;5033537;28;19920;-63
2022/06/20 09:09:59;;;;;;;4.10;1.52;;;;;;;20.48;47.90;98622.75;5033575;28;20540;-62
2022/06/20 09:12:52;;;;;;;4.97;1.88;;;;;;;20.63;46.67;98636.44;5049679;28;20120;-64
2022/06/20 09:15:48;;;;;;;3.92;1.60;;;;;;;20.74;45.93;98628.56;5052081;28;20041;-64
2022/06/20 09:18:32;;;;;;;4.28;1.50;;;;;;;20.69;46.79;98638.59;5040120;28;20038;-63
2022/06/20 09:21:22;;;;;;;3.55;1.50;;;;;;;20.37;45.80;98594.66;5046010;28;20056;-63
2022/06/20 09:24:21;;;;;;;2.33;1.35;;;;;;;20.70;44.25;98656.06;5052593;28;20036;-63
2022/06/20 09:26:58;;;;;;;5.50;1.50;;;;;;;20.88;45.93;98652.91;5048485;28;20045;-64
2022/06/20 09:29:52;;;;;;;3.88;1.67;;;;;;;20.69;43.91;98655.25;5033365;28;20025;-62
2022/06/20 09:32:42;;;;;;;4.43;1.70;;;;;;;20.90;45.16;98651.00;5047737;28;20033;-63
2022/06/20 09:35:16;;;;;;;3.83;1.60;;;;;;;20.96;47.07;98648.69;5072416;28;20059;-63
2022/06/20 09:37:44;;;;;;;4.25;1.77;;;;;;;20.90;46.86;98645.75;5069029;28;20040;-63
2022/06/20 09:40:21;;;;;;;4.03;1.60;;;;;;;21.04;47.15;98641.00;5040352;28;20478;-62
2022/06/20 09:43:02;;;;;;;4.40;1.38;;;;;;;20.84;48.60;98636.56;5044463;28;20517;-62
2022/06/20 09:45:41;;;;;;;3.35;1.52;;;;;;;20.88;46.88;98630.09;5040101;28;20020;-63
2022/06/20 09:48:21;;;;;;;3.80;1.65;;;;;;;20.93;45.32;98638.41;5055420;28;20032;-63
2022/06/20 09:50:56;;;;;;;4.22;1.65;;;;;;;21.01;46.72;98643.09;5072584;28;20039;-63
2022/06/20 09:53:47;;;;;;;2.15;1.23;;;;;;;20.94;44.90;98626.13;5032937;28;20021;-63
2022/06/20 09:56:36;;;;;;;7.13;1.90;;;;;;;20.79;46.17;98601.88;5031879;28;20029;-62
2022/06/20 09:59:20;;;;;;;6.75;2.15;;;;;;;20.96;45.53;98642.59;5031973;28;20030;-63
2022/06/20 10:01:48;;;;;;;2.95;1.80;;;;;;;20.65;46.68;98610.84;5048993;28;20411;-63
2022/06/20 10:04:37;;;;;;;4.90;1.67;;;;;;;20.92;47.58;98641.19;5040387;28;20057;-62
2022/06/20 10:07:14;;;;;;;4.00;1.60;;;;;;;20.60;46.88;98610.38;5030629;28;20044;-62
2022/06/20 10:10:07;;;;;;;4.18;1.48;;;;;;;20.73;45.54;98658.47;5047182;28;20443;-63
2022/06/20 10:12:59;;;;;;;2.28;1.50;;;;;;;20.70;45.72;98656.06;5072499;28;20028;-62
2022/06/20 10:15:24;;;;;;;5.20;1.92;;;;;;;20.85;46.41;98652.22;5062099;28;20056;-63
2022/06/20 10:18:11;;;;;;;4.43;1.83;;;;;;;20.85;46.71;98654.84;5032535;28;20479;-63
2022/06/20 10:21:14;;;;;;;3.42;1.90;;;;;;;20.80;46.63;98641.22;5041736;28;20029;-62
2022/06/20 10:23:55;;;;;;;4.40;1.50;;;;;;;20.94;48.07;98649.81;5046855;28;20037;-62
2022/06/20 10:26:20;;;;;;;4.32;1.70;;;;;;;21.01;46.49;98657.06;5031669;28;20030;-62
2022/06/20 10:28:50;;;;;;;2.47;1.50;;;;;;;20.65;44.69;98611.69;5051804;28;20032;-63
2022/06/20 10:31:25;;;;;;;3.30;1.50;;;;;;;20.90;44.39;98656.28;5062779;28;20048;-62
2022/06/20 10:34:19;;;;;;;4.50;1.48;;;;;;;20.71;44.13;98612.16;5053218;28;20033;-64
2022/06/20 10:36:52;;;;;;;4.25;1.40;;;;;;;20.79;45.27;98621.16;5051046;28;20475;-63
2022/06/20 10:39:30;;;;;;;4.85;1.92;;;;;;;21.07;45.67;98642.56;5047483;28;20057;-63
2022/06/20 10:42:02;;;;;;;3.80;1.48;;;;;;;20.98;45.21;98651.22;5032148;28;20095;-62
2022/06/20 10:44:30;;;;;;;3.00;1.65;;;;;;;21.06;46.67;98654.06;5034210;28;20033;-63
2022/06/20 10:47:05;;;;;;;7.50;2.20;;;;;;;21.12;47.17;98657.97;5051342;28;20120;-64
2022/06/20 10:49:39;;;;;;;3.13;1.60;;;;;;;21.08;48.59;98652.16;5064771;28;20028;-62
2022/06/20 10:52:41;;;;;;;4.05;2.03;;;;;;;20.98;46.91;98640.69;5055504;28;20023;-62
2022/06/20 10:55:33;;;;;;;4.80;2.10;;;;;;;20.36;44.86;98600.88;5052617;28;20397;-61
2022/06/20 10:58:17;;;;;;;3.92;2.20;;;;;;;20.91;46.00;98647.41;5035933;28;20112;-63
2022/06/20 11:00:49;;;;;;;3.10;1.95;;;;;;;20.74;46.61;98593.53;5046917;28;20024;-62
2022/06/20 11:03:41;;;;;;;5.88;1.90;;;;;;;21.15;47.03;98642.78;5052325;28;20029;-63
2022/06/20 11:06:45;;;;;;;6.30;1.67;;;;;;;21.07;48.12;98642.56;5035431;28;20029;-62
2022/06/20 11:09:26;;;;;;;4.45;1.70;;;;;;;21.13;47.81;98646.50;5020867;28;20041;-62
2022/06/20 11:12:36;;;;;;;4.85;1.88;;;;;;;20.59;45.63;98590.28;5041635;28;20032;-62
2022/06/20 11:15:28;;;;;;;4.30;1.77;;;;;;;20.73;46.07;98607.63;5046225;28;20390;-63
2022/06/20 11:18:00;;;;;;;2.95;1.50;;;;;;;20.90;44.05;98638.69;5040759;28;20116;-61
2022/06/20 11:20:45;;;;;;;3.88;1.58;;;;;;;20.82;45.50;98597.19;5043941;28;20043;-61
2022/06/20 11:23:26;;;;;;;2.90;1.73;;;;;;;20.63;45.91;98574.13;5053687;28;20051;-61
2022/06/20 11:26:01;;;;;;;7.00;1.80;;;;;;;20.75;46.91;98616.22;5055230;28;20105;-62
2022/06/20 11:28:52;;;;;;;4.15;1.77;;;;;;;20.66;47.75;98591.47;5068238;28;20028;-64
2022/06/20 11:31:44;;;;;;;3.67;1.63;;;;;;;20.79;47.61;98621.16;5051783;28;20028;-62
2022/06/20 11:34:16;;;;;;;5.50;1.63;;;;;;;20.78;48.66;98635.25;5065757;28;20033;-63
2022/06/20 11:37:15;;;;;;;3.28;1.58;;;;;;;20.63;45.75;98637.28;5061013;28;20022;-62
2022/06/20 11:40:07;;;;;;;3.67;2.25;;;;;;;20.63;47.44;98637.28;5042928;28;20045;-63
2022/06/20 11:43:01;;;;;;;4.30;1.85;;;;;;;20.38;47.70;98579.69;5034945;28;20470;-63
2022/06/20 11:45:26;;;;;;;4.78;1.63;;;;;;;20.59;48.64;98617.44;5034847;28;20025;-63
2022/06/20 11:48:03;;;;;;;4.25;1.70;;;;;;;20.60;48.63;98631.44;5044295;28;20031;-63
2022/06/20 11:50:47;;;;;;;4.00;1.60;;;;;;;20.43;48.18;98601.22;5046283;28;20025;-63
2022/06/20 11:53:34;;;;;;;3.33;1.52;;;;;;;20.55;47.83;98617.81;5051639;28;20051;-63
2022/06/20 11:56:19;;;;;;;2.95;1.75;;;;;;;20.65;48.22;98635.38;5034948;28;20110;-63
2022/06/20 11:59:00;;;;;;;3.92;2.00;;;;;;;20.74;48.27;98631.19;5033439;28;20032;-62
2022/06/20 12:01:32;;;;;;;6.22;2.00;;;;;;;20.72;46.91;98633.09;5046642;28;20060;-62
2022/06/20 12:04:14;;;;;;;4.10;2.03;;;;;;;20.94;46.42;98623.47;5063336;28;20032;-63
2022/06/20 12:06:56;;;;;;;5.07;2.03;;;;;;;21.12;47.10;98632.50;5074635;28;20032;-62
2022/06/20 12:09:34;;;;;;;6.00;1.92;;;;;;;21.19;46.68;98632.81;5056520;28;20028;-62
2022/06/20 12:12:27;;;;;;;2.90;1.70;;;;;;;21.21;47.05;98623.81;5073131;28;20390;-62
2022/06/20 12:15:21;;;;;;;4.80;1.75;;;;;;;21.25;46.56;98618.31;5074396;28;20031;-63
2022/06/20 12:17:46;;;;;;;2.97;1.38;;;;;;;21.34;46.58;98622.81;5033991;28;20060;-62
2022/06/20 12:23:21;;;;;;;3.88;1.90;;;;;;;21.10;48.18;98565.97;5054198;28;20052;-62
2022/06/20 12:25:55;;;;;;;5.60;2.07;;;;;;;21.28;49.74;98616.25;5053695;28;20021;-61
2022/06/20 12:28:21;;;;;;;4.47;1.95;;;;;;;21.15;46.38;98616.44;5066045;28;20417;-61
2022/06/20 12:30:53;;;;;;;3.22;1.73;;;;;;;21.21;47.69;98626.47;5073895;28;20039;-62
2022/06/20 12:33:19;;;;;;;6.72;1.80;;;;;;;21.15;47.27;98631.41;5067645;28;20040;-62
2022/06/20 12:35:57;;;;;;;4.18;1.65;;;;;;;20.78;47.44;98589.66;5033977;28;20109;-62
2022/06/20 12:38:35;;;;;;;4.55;1.83;;;;;;;20.98;48.58;98627.53;5052653;28;20073;-62
2022/06/20 12:41:06;;;;;;;5.45;1.83;;;;;;;20.91;49.19;98648.25;5068676;28;20067;-63
2022/06/20 12:43:59;;;;;;;4.85;2.15;;;;;;;20.94;49.94;98650.63;5046125;28;20034;-62
2022/06/20 12:46:41;;;;;;;2.58;1.75;;;;;;;20.89;48.80;98649.34;5033889;28;20545;-62
2022/06/20 12:49:21;;;;;;;4.72;1.83;;;;;;;20.92;48.14;98654.34;5033727;28;20037;-62
2022/06/20 12:51:58;;;;;;;6.88;1.77;;;;;;;20.82;48.01;98652.47;5033785;28;20025;-62
2022/06/20 12:54:39;;;;;;;5.93;1.58;;;;;;;20.94;48.88;98660.34;5038676;28;20030;-62
2022/06/20 12:57:07;;;;;;;3.88;1.75;;;;;;;20.96;48.51;98658.41;5034861;28;20036;-62
2022/06/20 12:59:59;;;;;;;3.63;2.00;;;;;;;21.07;47.41;98661.00;5053750;28;20383;-62
2022/06/20 13:02:55;;;;;;;4.43;1.85;;;;;;;20.76;47.80;98624.00;5030595;28;20041;-64
2022/06/20 13:05:47;;;;;;;6.43;2.08;;;;;;;20.67;47.19;98601.06;5033668;28;20036;-64